Detall de PIREP

Printer-friendly versionPDF version

[2010/02/10 08:38:00]
Flight IATA:CT0001
Pilot Number:041
Company ICAO:CAT
Aircraft Type:C172/A
PAX:2
Departing Airport: LEVC
Destination Airport: LEIB
Alternate Airport:LEPA
Online: VATSIM
Route:NINOT2A NINOT1N
Flight Level:A6000
No Slew and time accel
No pause
Crash detect
Detect pilot in Cockpit between each 30 and 45 minutes
08:38 Zero fuel Weight: 2310 Lbs, Fuel Weight: 200 Lbs
08:38 VATSIM:LEVC 100800Z 27006KT CAVOK 04/M02 Q1006 NOSIG
08:38 VATSIM:LEIB 100800Z 32008KT 270V020 9999 FEW045 09/M01 Q1005 NOSIG
08:38 VOICE CATALONIAN
08:38 Parking Brakes off
08:42 Take-off
08:42 Take off Weight: 2510 Lbs
08:42 Wind: 273º @ 005 Knots Heading: 294º
08:42 POS N39º 29´ 12´´ W000º 28´ 29´´
08:42 Flaps:1 at 79 Knots
08:43 Flaps:0 at 84 Knots
08:57 Wind:349º@020 Knots Heading: 081º Ground Speed: 099 Knots Altitude 4963 ft
09:12 Wind:349º@020 Knots Heading: 121º Ground
Speed: 121 Knots Altitude 5793 ft
09:27 Wind:341º@024 Knots Heading: 101º Ground Speed: 129 Knots Altitude 5715 ft
09:42 Wind:302º@008 Knots Heading: 076º Ground Speed: 109 Knots Altitude 1345 ft
09:44 Flaps:1 at 84 Knots
09:47 Flaps:2 at 80 Knots
09:52 TouchDown:Rate -24 ft/min Speed: 64 Knots
09:52 Flaps:0 at 62 Knots
09:52 VATSIM:LEIB 100930Z 29010KT 260V330 9999 FEW045 11/M01 Q1005 NOSIG
09:52 Land
09:52 Wind:302º@008 Knots
09:52 Heading: 267º
09:52 Flight Duration: 01:10
09:52 Landing Weight: 2453 Lbs
09:52 POS N38º 52´ 21´´ E001º 22´ 16´´
09:54 Parking brakes on
09:54 Block to Block Duration: 01:16
09:54 Final Fuel: 141 Lbls
09:54 Spent Fuel: 59 Lbls
09:54 Flight Length: 126 NM
09:54 TOD Land Length: 126 NM

Exportar CSV

Powered by Drupal - Modified by Danger4k